createdAt,value
2022-08-23T00:01:31.493Z,15.80
2022-08-23T00:04:02.658Z,15.71
2022-08-23T00:06:30.119Z,15.67
2022-08-23T00:08:57.340Z,15.62
2022-08-23T00:11:54.850Z,15.64
2022-08-23T00:14:27.478Z,15.59
2022-08-23T00:16:56.433Z,15.54
2022-08-23T00:19:26.264Z,15.44
2022-08-23T00:21:54.895Z,15.34
2022-08-23T00:24:23.221Z,15.33
2022-08-23T00:26:59.250Z,15.31
2022-08-23T00:29:30.783Z,15.26
2022-08-23T00:31:58.455Z,15.23
2022-08-23T00:34:25.226Z,15.17
2022-08-23T00:36:52.321Z,15.14
2022-08-23T00:39:20.041Z,15.15
2022-08-23T00:41:48.706Z,15.13
2022-08-23T00:44:48.235Z,15.10
2022-08-23T00:47:34.722Z,15.04
2022-08-23T00:50:23.327Z,14.99
2022-08-23T00:52:58.009Z,14.93
2022-08-23T00:55:25.717Z,14.91
2022-08-23T00:57:52.837Z,14.88
2022-08-23T01:00:20.070Z,14.84
2022-08-23T01:02:49.260Z,14.83
2022-08-23T01:05:16.192Z,14.79
2022-08-23T01:07:56.402Z,14.77
2022-08-23T01:10:32.645Z,14.75
2022-08-23T01:13:08.594Z,14.70
2022-08-23T01:15:45.822Z,14.65
2022-08-23T01:18:16.910Z,14.58
2022-08-23T01:21:43.559Z,14.58
2022-08-23T01:24:27.489Z,14.54
2022-08-23T01:26:58.726Z,14.51
2022-08-23T01:29:25.671Z,14.51
2022-08-23T01:31:52.434Z,14.55
2022-08-23T01:34:19.164Z,14.45
2022-08-23T01:36:46.527Z,14.47
2022-08-23T01:39:13.357Z,14.46
2022-08-23T01:41:40.706Z,14.43
2022-08-23T01:44:09.247Z,14.38
2022-08-23T01:46:36.627Z,14.37
2022-08-23T01:49:08.321Z,14.37
2022-08-23T01:51:35.360Z,14.32
2022-08-23T01:54:02.121Z,14.29
2022-08-23T01:56:38.950Z,14.27
2022-08-23T01:59:08.661Z,14.24
2022-08-23T02:01:35.869Z,14.23
2022-08-23T02:04:05.363Z,14.18
2022-08-23T02:06:32.976Z,14.14
2022-08-23T02:09:03.679Z,14.12
2022-08-23T02:11:38.447Z,14.10
2022-08-23T02:14:09.130Z,14.05
2022-08-23T02:16:42.347Z,14.04
2022-08-23T02:19:20.742Z,14.03
2022-08-23T02:21:48.080Z,13.96
2022-08-23T02:24:17.894Z,13.93
2022-08-23T02:26:48.431Z,13.93
2022-08-23T02:29:24.640Z,13.89
2022-08-23T02:31:51.490Z,13.84
2022-08-23T02:34:19.048Z,13.82
2022-08-23T02:36:48.458Z,13.82
2022-08-23T02:39:17.033Z,13.82
2022-08-23T02:41:44.304Z,13.76
2022-08-23T02:44:11.940Z,13.77
2022-08-23T02:46:40.084Z,13.72
2022-08-23T02:49:07.453Z,13.66
2022-08-23T02:51:34.833Z,13.62
2022-08-23T02:54:01.922Z,13.61
2022-08-23T02:56:28.708Z,13.61
2022-08-23T02:58:55.464Z,13.55
2022-08-23T03:01:25.637Z,13.53
2022-08-23T03:03:52.483Z,13.48
2022-08-23T03:06:24.783Z,13.44
2022-08-23T03:08:54.298Z,13.40
2022-08-23T03:11:22.498Z,13.34
2022-08-23T03:13:50.392Z,13.33
2022-08-23T03:16:18.227Z,13.29
2022-08-23T03:18:45.836Z,13.25
2022-08-23T03:21:13.137Z,13.19
2022-08-23T03:23:40.542Z,13.14
2022-08-23T03:26:09.964Z,13.12
2022-08-23T03:28:39.556Z,13.07
2022-08-23T03:31:08.193Z,13.07
2022-08-23T03:33:35.865Z,13.07
2022-08-23T03:36:06.464Z,13.00
2022-08-23T03:38:34.329Z,12.99
2022-08-23T03:41:01.594Z,12.99
2022-08-23T03:43:28.825Z,12.95
2022-08-23T03:45:56.436Z,12.90
2022-08-23T03:48:26.467Z,12.88
2022-08-23T03:50:56.056Z,12.81
2022-08-23T03:53:24.217Z,12.82
2022-08-23T03:55:53.472Z,12.83
2022-08-23T03:58:21.745Z,12.84
2022-08-23T04:00:48.717Z,12.82
2022-08-23T04:03:15.814Z,12.77
2022-08-23T04:05:42.513Z,12.79
2022-08-23T04:08:11.568Z,12.79
2022-08-23T04:10:39.295Z,12.77
2022-08-23T04:13:08.572Z,12.78
2022-08-23T04:15:35.917Z,12.73
2022-08-23T04:18:02.837Z,12.71
2022-08-23T04:20:29.964Z,12.69
2022-08-23T04:22:57.625Z,12.69
2022-08-23T04:25:34.618Z,12.62
2022-08-23T04:28:03.721Z,12.66
2022-08-23T04:30:31.005Z,12.66
2022-08-23T04:32:57.996Z,12.63
2022-08-23T04:35:26.205Z,12.66
2022-08-23T04:37:53.603Z,12.62
2022-08-23T04:40:39.234Z,12.61
2022-08-23T04:43:06.574Z,12.56
2022-08-23T04:45:33.311Z,12.56
2022-08-23T04:48:00.307Z,12.53
2022-08-23T04:50:27.306Z,12.54
2022-08-23T04:52:54.149Z,12.53
2022-08-23T04:55:20.975Z,12.53
2022-08-23T04:57:47.817Z,12.53
2022-08-23T05:00:16.737Z,12.50
2022-08-23T05:02:44.156Z,12.48
2022-08-23T05:05:11.553Z,12.48
2022-08-23T05:07:42.839Z,12.47
2022-08-23T05:10:13.163Z,12.50
2022-08-23T05:12:40.603Z,12.50
2022-08-23T05:15:09.658Z,12.52
2022-08-23T05:17:37.759Z,12.49
2022-08-23T05:20:06.799Z,12.49
2022-08-23T05:22:36.045Z,12.49
2022-08-23T05:25:03.071Z,12.44
2022-08-23T05:27:30.120Z,12.49
2022-08-23T05:29:58.074Z,12.51
2022-08-23T05:32:25.267Z,12.49
2022-08-23T05:34:52.130Z,12.51
2022-08-23T05:37:19.072Z,12.51
2022-08-23T05:39:45.921Z,12.54
2022-08-23T05:42:15.031Z,12.57
2022-08-23T05:44:42.228Z,12.56
2022-08-23T05:47:13.018Z,12.56
2022-08-23T05:49:42.817Z,12.60
2022-08-23T05:52:14.374Z,12.63
2022-08-23T05:54:42.149Z,12.66
2022-08-23T05:57:10.600Z,12.67
2022-08-23T05:59:37.374Z,12.71
2022-08-23T06:02:04.530Z,12.73
2022-08-23T06:04:31.425Z,12.77
2022-08-23T06:06:59.085Z,12.79
2022-08-23T06:09:26.391Z,12.81
2022-08-23T06:11:56.178Z,12.84
2022-08-23T06:14:23.881Z,12.86
2022-08-23T06:16:55.532Z,12.86
2022-08-23T06:19:23.298Z,12.92
2022-08-23T06:21:51.465Z,12.96
2022-08-23T06:24:18.643Z,12.97
2022-08-23T06:26:46.811Z,13.03
2022-08-23T06:29:17.602Z,13.06
2022-08-23T06:31:49.730Z,13.08
2022-08-23T06:34:25.762Z,13.14
2022-08-23T06:36:58.214Z,13.16
2022-08-23T06:39:27.937Z,13.19
2022-08-23T06:42:00.805Z,13.25
2022-08-23T06:44:28.773Z,13.28
2022-08-23T06:46:59.143Z,13.32
2022-08-23T06:49:27.793Z,13.37
2022-08-23T06:51:57.363Z,13.41
2022-08-23T06:54:26.853Z,13.44
2022-08-23T06:56:54.194Z,13.50
2022-08-23T06:59:22.127Z,13.55
2022-08-23T07:01:53.910Z,13.60
2022-08-23T07:04:24.626Z,13.63
2022-08-23T07:06:51.463Z,13.67
2022-08-23T07:09:18.938Z,13.74
2022-08-23T07:11:46.369Z,13.77
2022-08-23T07:14:15.203Z,13.85
2022-08-23T07:16:45.892Z,13.90
2022-08-23T07:19:13.478Z,13.95
2022-08-23T07:21:41.130Z,14.00
2022-08-23T07:24:08.700Z,14.06
2022-08-23T07:26:37.119Z,14.11
2022-08-23T07:29:08.609Z,14.14
2022-08-23T07:31:40.315Z,14.19
2022-08-23T07:34:07.565Z,14.28
2022-08-23T07:36:36.008Z,14.32
2022-08-23T07:39:05.877Z,14.35
2022-08-23T07:41:33.506Z,14.42
2022-08-23T07:44:02.781Z,14.47
2022-08-23T07:46:31.293Z,14.52
2022-08-23T07:48:58.658Z,14.61
2022-08-23T07:51:26.985Z,14.67
2022-08-23T07:53:54.053Z,14.72
2022-08-23T07:56:21.520Z,14.77
2022-08-23T07:58:49.323Z,14.81
2022-08-23T08:01:17.971Z,14.88
2022-08-23T08:03:52.641Z,14.96
2022-08-23T08:06:32.653Z,14.99
2022-08-23T08:09:00.064Z,15.11
2022-08-23T08:11:34.918Z,15.17
2022-08-23T08:14:08.157Z,15.26
2022-08-23T08:16:41.101Z,15.31
2022-08-23T08:19:11.416Z,15.44
2022-08-23T08:21:41.856Z,15.48
2022-08-23T08:24:12.922Z,15.52
2022-08-23T08:26:41.420Z,15.63
2022-08-23T08:29:10.772Z,15.64
2022-08-23T08:31:39.505Z,15.81
2022-08-23T08:34:07.973Z,15.83
2022-08-23T08:36:39.601Z,15.90
2022-08-23T08:39:10.516Z,15.96
2022-08-23T08:42:04.973Z,15.99
2022-08-23T08:44:58.143Z,16.03
2022-08-23T08:48:13.345Z,16.14
2022-08-23T08:51:00.727Z,16.23
2022-08-23T08:53:37.110Z,16.29
2022-08-23T08:56:34.010Z,16.43
2022-08-23T08:59:07.736Z,16.43
2022-08-23T09:01:38.400Z,16.49
2022-08-23T09:04:07.083Z,16.60
2022-08-23T09:06:36.655Z,16.69
2022-08-23T09:09:37.012Z,16.76
2022-08-23T09:12:42.716Z,16.84
2022-08-23T09:15:24.862Z,16.95
2022-08-23T09:17:54.877Z,16.95
2022-08-23T09:20:32.821Z,17.05
2022-08-23T09:23:11.483Z,17.17
2022-08-23T09:25:38.676Z,17.26
2022-08-23T09:28:05.463Z,17.31
2022-08-23T09:30:55.308Z,17.43
2022-08-23T09:33:27.444Z,17.55
2022-08-23T09:36:25.840Z,17.60
2022-08-23T09:38:59.716Z,17.63
2022-08-23T09:41:32.917Z,17.64
2022-08-23T09:44:02.506Z,17.75
2022-08-23T09:46:32.294Z,17.79
2022-08-23T09:49:01.356Z,17.97
2022-08-23T09:51:41.598Z,18.05
2022-08-23T09:54:18.775Z,18.00
2022-08-23T09:56:53.435Z,18.16
2022-08-23T09:59:26.502Z,18.24
2022-08-23T10:01:56.537Z,18.30
2022-08-23T10:04:32.980Z,18.40
2022-08-23T10:06:59.715Z,18.50
2022-08-23T10:09:30.072Z,18.49
2022-08-23T10:11:59.465Z,18.51
2022-08-23T10:14:30.622Z,18.52
2022-08-23T10:17:10.408Z,18.72
2022-08-23T10:19:40.137Z,18.69
2022-08-23T10:22:16.060Z,18.74
2022-08-23T10:24:49.520Z,18.86
2022-08-23T10:27:56.576Z,18.92
2022-08-23T10:30:47.114Z,19.01
2022-08-23T10:33:20.504Z,18.99
2022-08-23T10:35:59.817Z,19.00
2022-08-23T10:38:26.803Z,19.13
2022-08-23T10:41:23.813Z,19.16
2022-08-23T10:44:09.125Z,19.36
2022-08-23T10:46:46.619Z,19.51
2022-08-23T10:49:14.617Z,19.51
2022-08-23T10:51:48.796Z,19.59
2022-08-23T10:54:35.227Z,19.68
2022-08-23T10:57:06.432Z,19.71
2022-08-23T10:59:37.074Z,19.76
2022-08-23T11:02:09.467Z,19.89
2022-08-23T11:04:51.659Z,19.98
2022-08-23T11:07:29.483Z,19.99
2022-08-23T11:10:16.241Z,20.19
2022-08-23T11:13:00.695Z,20.22
2022-08-23T11:15:41.395Z,20.34
2022-08-23T11:18:34.606Z,20.22
2022-08-23T11:21:04.147Z,20.31
2022-08-23T11:23:36.645Z,20.31
2022-08-23T11:26:05.023Z,20.39
2022-08-23T11:28:44.207Z,20.50
2022-08-23T11:31:48.981Z,20.57
2022-08-23T11:34:29.564Z,20.63
2022-08-23T11:37:18.538Z,20.74
2022-08-23T11:40:00.029Z,20.86
2022-08-23T11:42:29.665Z,20.95
2022-08-23T11:44:56.708Z,20.97
2022-08-23T11:47:44.478Z,21.05
2022-08-23T11:50:25.551Z,21.11
2022-08-23T11:53:15.403Z,21.18
2022-08-23T11:56:12.720Z,21.36
2022-08-23T11:59:21.420Z,21.40
2022-08-23T12:01:51.333Z,21.49
2022-08-23T12:04:42.323Z,21.64
2022-08-23T12:07:13.337Z,21.67
2022-08-23T12:09:40.061Z,21.63
2022-08-23T12:12:30.877Z,21.88
2022-08-23T12:15:02.838Z,21.98
2022-08-23T12:17:49.657Z,22.01
2022-08-23T12:20:28.932Z,21.93
2022-08-23T12:23:14.994Z,22.00
2022-08-23T12:25:42.801Z,22.16
2022-08-23T12:28:27.681Z,22.15
2022-08-23T12:31:20.738Z,22.21
2022-08-23T12:34:17.562Z,22.27
2022-08-23T12:37:17.842Z,22.30
2022-08-23T12:39:55.408Z,22.52
2022-08-23T12:42:37.396Z,22.57
2022-08-23T12:45:21.627Z,22.61
2022-08-23T12:48:02.889Z,22.67
2022-08-23T12:50:39.849Z,22.72
2022-08-23T12:53:15.539Z,22.77
2022-08-23T12:55:51.143Z,22.88
2022-08-23T12:58:31.656Z,22.85
2022-08-23T13:01:04.784Z,22.94
2022-08-23T13:03:39.976Z,23.05
2022-08-23T13:06:12.989Z,23.10
2022-08-23T13:08:43.037Z,23.13
2022-08-23T13:11:11.821Z,23.30
2022-08-23T13:13:41.055Z,23.22
2022-08-23T13:16:28.697Z,23.35
2022-08-23T13:19:10.195Z,23.37
2022-08-23T13:21:39.782Z,23.45
2022-08-23T13:24:38.549Z,23.57
2022-08-23T13:27:17.646Z,23.66
2022-08-23T13:29:59.768Z,23.76
2022-08-23T13:32:43.981Z,23.78
2022-08-23T13:35:34.421Z,23.88
2022-08-23T13:38:08.810Z,23.95
2022-08-23T13:40:56.432Z,24.03
2022-08-23T13:43:45.255Z,24.11
2022-08-23T13:46:15.031Z,24.19
2022-08-23T13:48:48.080Z,24.21
2022-08-23T13:51:38.869Z,24.19
2022-08-23T13:54:11.853Z,24.35
2022-08-23T13:56:43.775Z,24.31
2022-08-23T13:59:26.862Z,24.26
2022-08-23T14:02:06.157Z,24.44
2022-08-23T14:04:33.796Z,24.52
2022-08-23T14:07:00.534Z,24.60
2022-08-23T14:09:27.372Z,24.57
2022-08-23T14:11:57.739Z,24.74
2022-08-23T14:14:25.283Z,24.80
2022-08-23T14:16:54.575Z,24.80
2022-08-23T14:22:08.332Z,24.98
2022-08-23T14:24:35.131Z,25.07
2022-08-23T14:27:02.765Z,25.03
2022-08-23T14:29:29.754Z,25.12
2022-08-23T14:31:58.844Z,25.21
2022-08-23T14:34:28.827Z,25.33
2022-08-23T14:39:43.399Z,25.12
2022-08-23T14:42:12.357Z,25.23
2022-08-23T14:44:39.123Z,25.46
2022-08-23T14:47:08.915Z,25.58
2022-08-23T14:49:36.304Z,25.70
2022-08-23T14:52:03.432Z,25.73
2022-08-23T14:54:30.976Z,25.70
2022-08-23T14:56:58.159Z,25.88
2022-08-23T14:59:24.941Z,25.93
2022-08-23T15:01:53.610Z,25.99
2022-08-23T15:04:22.942Z,25.97
2022-08-23T15:07:16.088Z,26.09
2022-08-23T15:09:36.923Z,26.25
2022-08-23T15:14:50.682Z,26.12
2022-08-23T15:17:17.556Z,26.22
2022-08-23T15:19:44.376Z,26.35
2022-08-23T15:22:21.604Z,26.52
2022-08-23T15:24:49.730Z,26.42
2022-08-23T15:27:25.426Z,26.43
2022-08-23T15:29:52.222Z,26.40
2022-08-23T15:32:22.258Z,26.34
2022-08-23T15:34:49.645Z,26.36
2022-08-23T15:37:20.341Z,26.49
2022-08-23T15:39:47.272Z,26.41
2022-08-23T15:42:18.533Z,26.53
2022-08-23T15:44:48.139Z,26.68
2022-08-23T15:47:21.772Z,26.65
2022-08-23T15:49:49.009Z,26.19
2022-08-23T15:52:16.159Z,26.29
2022-08-23T15:54:43.647Z,26.28
2022-08-23T15:57:20.385Z,26.25
2022-08-23T15:59:47.330Z,26.51
2022-08-23T16:02:14.150Z,26.62
2022-08-23T16:04:41.325Z,26.70
2022-08-23T16:07:12.601Z,26.68
2022-08-23T16:09:39.391Z,26.59
2022-08-23T16:12:06.951Z,26.65
2022-08-23T16:14:34.402Z,26.59
2022-08-23T16:17:01.295Z,26.60
2022-08-23T16:19:28.543Z,26.49
2022-08-23T16:21:57.383Z,26.52
2022-08-23T16:24:24.901Z,26.53
2022-08-23T16:26:52.633Z,26.63
2022-08-23T16:29:20.578Z,26.59
2022-08-23T16:31:48.663Z,26.65
2022-08-23T16:34:20.143Z,26.44
2022-08-23T16:36:58.614Z,26.42
2022-08-23T16:39:26.277Z,26.47
2022-08-23T16:41:52.994Z,26.24
2022-08-23T16:44:20.370Z,26.24
2022-08-23T16:46:47.696Z,26.25
2022-08-23T16:49:17.091Z,26.32
2022-08-23T16:51:44.792Z,26.34
2022-08-23T16:54:11.594Z,26.21
2022-08-23T16:56:40.552Z,26.14
2022-08-23T16:59:09.284Z,26.15
2022-08-23T17:01:50.622Z,26.11
2022-08-23T17:04:19.260Z,26.10
2022-08-23T17:06:46.384Z,26.08
2022-08-23T17:09:14.324Z,26.04
2022-08-23T17:11:43.478Z,26.01
2022-08-23T17:14:10.811Z,25.97
2022-08-23T17:16:37.879Z,25.91
2022-08-23T17:19:05.239Z,25.88
2022-08-23T17:21:32.318Z,25.86
2022-08-23T17:24:02.469Z,25.81
2022-08-23T17:26:29.355Z,25.78
2022-08-23T17:28:56.786Z,25.74
2022-08-23T17:31:24.410Z,25.70
2022-08-23T17:33:51.260Z,25.66
2022-08-23T17:36:48.532Z,25.62
2022-08-23T17:39:19.522Z,25.56
2022-08-23T17:41:46.285Z,25.51
2022-08-23T17:44:13.432Z,25.46
2022-08-23T17:46:42.562Z,25.41
2022-08-23T17:49:10.530Z,25.35
2022-08-23T17:51:38.300Z,25.28
2022-08-23T17:54:05.456Z,25.22
2022-08-23T17:56:35.204Z,25.15
2022-08-23T17:59:01.933Z,25.07
2022-08-23T18:01:28.876Z,25.03
2022-08-23T18:03:55.955Z,24.94
2022-08-23T18:06:22.810Z,24.86
2022-08-23T18:08:52.597Z,24.80
2022-08-23T18:11:19.470Z,24.73
2022-08-23T18:13:46.206Z,24.67
2022-08-23T18:16:14.572Z,24.57
2022-08-23T18:18:41.969Z,24.51
2022-08-23T18:21:14.640Z,24.44
2022-08-23T18:23:41.853Z,24.36
2022-08-23T18:26:31.908Z,24.29
2022-08-23T18:29:01.426Z,24.17
2022-08-23T18:31:28.263Z,24.09
2022-08-23T18:34:00.179Z,24.04
2022-08-23T18:36:28.897Z,23.91
2022-08-23T18:38:56.219Z,23.82
2022-08-23T18:41:24.141Z,23.74
2022-08-23T18:43:51.737Z,23.66
2022-08-23T18:46:19.172Z,23.58
2022-08-23T18:48:53.291Z,23.49
2022-08-23T18:51:22.295Z,23.43
2022-08-23T18:53:52.192Z,23.35
2022-08-23T18:56:19.236Z,23.27
2022-08-23T18:58:45.983Z,23.16
2022-08-23T19:01:29.726Z,23.10
2022-08-23T19:03:58.620Z,22.99
2022-08-23T19:06:26.217Z,22.92
2022-08-23T19:08:53.055Z,22.83
2022-08-23T19:11:24.542Z,22.76
2022-08-23T19:13:51.543Z,22.69
2022-08-23T19:16:21.629Z,22.60
2022-08-23T19:18:50.300Z,22.50
2022-08-23T19:21:20.730Z,22.45
2022-08-23T19:23:49.720Z,22.36
2022-08-23T19:26:18.975Z,22.28
2022-08-23T19:28:48.026Z,22.22
2022-08-23T19:31:15.388Z,22.15
2022-08-23T19:33:42.444Z,22.08
2022-08-23T19:36:23.781Z,22.03
2022-08-23T19:38:57.459Z,21.93
2022-08-23T19:41:24.451Z,21.88
2022-08-23T19:43:51.597Z,21.81
2022-08-23T19:46:18.498Z,21.71
2022-08-23T19:48:47.095Z,21.67
2022-08-23T19:51:19.080Z,21.62
2022-08-23T19:54:04.020Z,21.53
2022-08-23T19:56:36.465Z,21.46
2022-08-23T19:59:09.403Z,21.38
2022-08-23T20:01:37.114Z,21.32
2022-08-23T20:04:05.097Z,21.24
2022-08-23T20:06:32.409Z,21.19
2022-08-23T20:08:59.392Z,21.14
2022-08-23T20:11:27.993Z,21.08
2022-08-23T20:13:56.812Z,21.00
2022-08-23T20:16:26.832Z,20.96
2022-08-23T20:18:55.325Z,20.91
2022-08-23T20:21:23.649Z,20.86
2022-08-23T20:24:01.255Z,20.75
2022-08-23T20:26:35.897Z,20.68
2022-08-23T20:29:04.036Z,20.63
2022-08-23T20:31:37.090Z,20.56
2022-08-23T20:34:05.804Z,20.46
2022-08-23T20:36:33.524Z,20.42
2022-08-23T20:39:01.858Z,20.38
2022-08-23T20:41:34.359Z,20.34
2022-08-23T20:44:02.398Z,20.29
2022-08-23T20:46:29.214Z,20.22
2022-08-23T20:48:58.849Z,20.18
2022-08-23T20:51:27.558Z,20.14
2022-08-23T20:53:54.953Z,20.08
2022-08-23T20:56:23.550Z,20.02
2022-08-23T20:58:51.072Z,19.95
2022-08-23T21:01:18.598Z,19.92
2022-08-23T21:03:45.674Z,19.86
2022-08-23T21:06:20.026Z,19.81
2022-08-23T21:08:49.914Z,19.76
2022-08-23T21:11:21.970Z,19.71
2022-08-23T21:13:48.789Z,19.65
2022-08-23T21:16:17.046Z,19.60
2022-08-23T21:18:44.146Z,19.56
2022-08-23T21:21:11.487Z,19.52
2022-08-23T21:23:38.856Z,19.47
2022-08-23T21:26:07.260Z,19.42
2022-08-23T21:28:36.062Z,19.38
2022-08-23T21:31:13.091Z,19.31
2022-08-23T21:33:42.153Z,19.24
2022-08-23T21:36:10.118Z,19.19
2022-08-23T21:38:37.486Z,19.16
2022-08-23T21:41:08.983Z,19.09
2022-08-23T21:43:39.323Z,19.05
2022-08-23T21:46:07.344Z,18.94
2022-08-23T21:48:34.461Z,18.86
2022-08-23T21:51:02.025Z,18.86
2022-08-23T21:53:28.927Z,18.83
2022-08-23T21:55:55.633Z,18.79
2022-08-23T21:58:22.378Z,18.74
2022-08-23T22:00:49.231Z,18.68
2022-08-23T22:03:16.031Z,18.65
2022-08-23T22:05:45.438Z,18.58
2022-08-23T22:08:14.496Z,18.54
2022-08-23T22:10:50.149Z,18.53
2022-08-23T22:13:27.000Z,18.41
2022-08-23T22:15:53.856Z,18.40
2022-08-23T22:18:21.054Z,18.34
2022-08-23T22:20:47.805Z,18.31
2022-08-23T22:23:17.651Z,18.27
2022-08-23T22:25:44.465Z,18.23
2022-08-23T22:28:11.375Z,18.16
2022-08-23T22:30:42.787Z,18.10
2022-08-23T22:33:11.331Z,18.06
2022-08-23T22:35:38.137Z,17.99
2022-08-23T22:38:13.623Z,17.86
2022-08-23T22:40:48.601Z,17.88
2022-08-23T22:43:15.990Z,17.85
2022-08-23T22:45:54.157Z,17.84
2022-08-23T22:48:21.663Z,17.80
2022-08-23T22:50:49.147Z,17.76
2022-08-23T22:53:20.012Z,17.75
2022-08-23T22:55:51.390Z,17.70
2022-08-23T22:58:18.449Z,17.60
2022-08-23T23:00:45.421Z,17.57
2022-08-23T23:03:12.467Z,17.57
2022-08-23T23:05:39.758Z,17.55
2022-08-23T23:08:25.539Z,17.49
2022-08-23T23:10:52.269Z,17.44
2022-08-23T23:13:19.734Z,17.39
2022-08-23T23:15:46.528Z,17.35
2022-08-23T23:18:13.382Z,17.30
2022-08-23T23:20:40.954Z,17.26
2022-08-23T23:23:14.730Z,17.25
2022-08-23T23:25:43.126Z,17.22
2022-08-23T23:28:10.448Z,17.19
2022-08-23T23:30:37.327Z,17.14
2022-08-23T23:33:04.580Z,17.10
2022-08-23T23:35:31.522Z,17.07
2022-08-23T23:37:58.877Z,17.05
2022-08-23T23:40:26.719Z,17.03
2022-08-23T23:42:53.809Z,16.99
2022-08-23T23:45:21.463Z,16.96
2022-08-23T23:47:49.518Z,16.93
2022-08-23T23:50:17.224Z,16.89
2022-08-23T23:52:44.031Z,16.84
2022-08-23T23:55:13.213Z,16.79
2022-08-23T23:57:39.944Z,16.76
